Time;durP1;ratioP1;P1;durP2;ratioP2;P2;SDS_P1;SDS_P2;PMS_P1;PMS_P2;Temp;Humidity;BMP_temperature;BMP_pressure;BME280_temperature;BME280_humidity;BME280_pressure;Samples;Min_cycle;Max_cycle;Signal;HPM_P1;HPM_P2
2022/05/24 00:00:18;;;;;;;3.30;3.00;;;;;;;20.57;42.60;94453.91;5057178;28;20245;-68
2022/05/24 00:02:44;;;;;;;3.78;3.22;;;;;;;20.58;42.69;94447.53;5067516;28;20222;-62
2022/05/24 00:05:10;;;;;;;4.20;3.80;;;;;;;20.67;42.86;94448.84;5079516;28;20216;-65
2022/05/24 00:07:37;;;;;;;6.35;3.53;;;;;;;20.60;42.94;94443.59;5091665;28;20216;-62
2022/05/24 00:10:03;;;;;;;5.45;3.35;;;;;;;20.49;43.73;94444.34;5089172;28;20228;-69
2022/05/24 00:12:29;;;;;;;7.00;4.13;;;;;;;20.48;43.87;94445.41;5067770;28;20699;-65
2022/05/24 00:17:39;;;;;;;7.00;4.15;;;;;;;20.23;43.96;94435.66;5084624;28;20347;-69
2022/05/24 00:20:05;;;;;;;7.65;4.78;;;;;;;20.24;43.87;94442.63;5074414;28;20555;-68
2022/05/24 00:22:31;;;;;;;6.45;4.15;;;;;;;20.23;43.36;94441.00;5078064;28;20281;-67
2022/05/24 00:25:01;;;;;;;6.15;4.47;;;;;;;20.18;43.46;94440.88;5074019;28;20220;-69
2022/05/24 00:27:27;;;;;;;5.20;3.53;;;;;;;20.09;42.81;94444.06;5071827;28;20222;-67
2022/05/24 00:29:54;;;;;;;4.70;3.35;;;;;;;19.81;42.91;94440.91;5075756;28;20254;-61
2022/05/24 00:32:19;;;;;;;3.95;3.28;;;;;;;19.76;42.83;94448.75;5068832;28;20265;-62
2022/05/24 00:34:44;;;;;;;4.43;2.85;;;;;;;19.61;43.23;94448.25;5073223;28;20204;-67
2022/05/24 00:37:10;;;;;;;3.47;2.78;;;;;;;19.65;43.09;94456.66;5074344;28;20236;-65
2022/05/24 00:39:35;;;;;;;5.25;3.10;;;;;;;19.57;43.30;94453.22;5070042;28;20227;-66
2022/05/24 00:42:07;;;;;;;5.15;2.67;;;;;;;19.36;43.53;94445.66;5075539;28;20223;-63
2022/05/24 00:44:37;;;;;;;2.67;2.42;;;;;;;19.37;43.59;94450.75;5070219;28;20244;-62
2022/05/24 00:47:29;;;;;;;3.05;2.50;;;;;;;19.59;43.07;94455.66;5057342;28;20204;-67
2022/05/24 00:50:03;;;;;;;4.13;2.50;;;;;;;19.59;42.94;94451.16;5068836;28;20223;-63
2022/05/24 00:52:31;;;;;;;2.35;2.15;;;;;;;19.55;42.98;94459.81;5080874;28;20298;-68
2022/05/24 00:54:59;;;;;;;2.58;2.10;;;;;;;19.58;42.89;94454.03;5088859;28;20216;-67
2022/05/24 00:57:36;;;;;;;3.22;2.40;;;;;;;19.53;43.35;94457.38;5062144;28;20297;-65
2022/05/24 01:00:09;;;;;;;3.63;2.42;;;;;;;19.48;43.39;94456.41;5066855;28;20322;-69
2022/05/24 01:02:38;;;;;;;2.60;2.33;;;;;;;19.48;43.39;94462.53;5069543;28;20205;-61
2022/05/24 01:05:10;;;;;;;3.08;2.78;;;;;;;19.52;43.39;94462.94;5058605;28;20209;-68
2022/05/24 01:07:36;;;;;;;3.67;2.53;;;;;;;19.44;43.69;94458.69;5067699;28;20223;-62
2022/05/24 01:10:23;;;;;;;3.33;2.20;;;;;;;19.47;43.72;94468.91;5074788;28;20223;-68
2022/05/24 01:13:06;;;;;;;3.78;2.60;;;;;;;19.44;43.91;94461.38;5060898;28;20221;-62
2022/05/24 01:15:32;;;;;;;3.42;2.72;;;;;;;19.28;44.16;94465.41;5072423;28;20223;-65
2022/05/24 01:17:59;;;;;;;2.88;2.67;;;;;;;19.32;44.16;94465.78;5047941;28;20220;-62
2022/05/24 01:20:25;;;;;;;3.25;2.65;;;;;;;19.34;44.39;94466.38;5063156;28;20200;-68
2022/05/24 01:23:12;;;;;;;5.22;2.80;;;;;;;19.33;44.25;94465.56;5087254;28;20565;-61
2022/05/24 01:25:46;;;;;;;4.22;2.75;;;;;;;19.39;43.80;94456.69;5071502;28;20310;-67
2022/05/24 01:28:21;;;;;;;3.85;3.00;;;;;;;19.36;43.90;94464.31;5061583;28;20248;-61
2022/05/24 01:30:47;;;;;;;4.00;2.92;;;;;;;19.27;44.13;94447.78;5077042;28;20261;-61
2022/05/24 01:36:09;;;;;;;3.53;3.10;;;;;;;19.36;44.35;94451.78;5089197;28;20281;-68
2022/05/24 01:38:35;;;;;;;4.15;2.88;;;;;;;19.19;44.45;94440.06;5074207;28;20311;-66
2022/05/24 01:41:04;;;;;;;5.13;3.20;;;;;;;19.17;44.81;94442.94;5052715;28;20212;-66
2022/05/24 01:43:29;;;;;;;4.72;3.42;;;;;;;19.10;45.25;94436.84;5050549;28;20217;-65
2022/05/24 01:46:00;;;;;;;3.63;3.03;;;;;;;19.07;45.29;94447.94;5063887;28;20229;-67
2022/05/24 01:48:40;;;;;;;3.78;3.40;;;;;;;18.85;46.05;94444.84;5059315;28;20299;-68
2022/05/24 01:51:08;;;;;;;3.53;3.22;;;;;;;18.94;45.88;94442.72;5055896;28;20277;-67
2022/05/24 01:53:41;;;;;;;6.00;3.50;;;;;;;18.87;46.13;94448.13;5048047;28;20211;-62
2022/05/24 01:56:11;;;;;;;5.03;3.38;;;;;;;18.87;46.16;94448.13;5053890;28;20303;-68
2022/05/24 01:58:39;;;;;;;4.40;3.45;;;;;;;18.88;46.15;94456.94;5068329;28;20220;-65
2022/05/24 02:01:24;;;;;;;3.67;2.80;;;;;;;18.88;46.49;94455.06;5052388;28;20270;-66
2022/05/24 02:03:50;;;;;;;4.72;3.35;;;;;;;18.91;46.34;94453.84;5065140;28;20233;-66
2022/05/24 02:06:25;;;;;;;9.13;3.50;;;;;;;18.91;46.68;94459.97;5054255;28;20235;-63
2022/05/24 02:08:51;;;;;;;4.50;3.45;;;;;;;18.95;46.62;94468.34;5042020;28;20215;-63
2022/05/24 02:11:23;;;;;;;4.82;3.50;;;;;;;19.02;46.44;94461.13;5059052;28;20291;-70
2022/05/24 02:13:53;;;;;;;4.55;3.33;;;;;;;18.99;46.63;94453.56;5039596;28;20220;-69
2022/05/24 02:16:22;;;;;;;4.57;3.50;;;;;;;19.00;46.95;94471.16;5069729;28;20227;-66
2022/05/24 02:18:51;;;;;;;5.80;3.63;;;;;;;18.97;46.97;94468.13;5057633;28;20212;-62
2022/05/24 02:21:16;;;;;;;6.07;4.00;;;;;;;19.00;46.86;94473.03;5048932;28;20221;-66
2022/05/24 02:23:44;;;;;;;6.10;4.30;;;;;;;18.91;47.60;94475.16;5049413;28;20227;-70
2022/05/24 02:26:11;;;;;;;4.93;3.33;;;;;;;18.98;47.27;94470.59;5052992;28;20213;-65
2022/05/24 02:28:37;;;;;;;7.03;3.78;;;;;;;18.99;47.46;94455.41;5053596;28;20228;-66
2022/05/24 02:31:13;;;;;;;6.10;3.25;;;;;;;18.84;47.88;94432.56;5057386;28;20228;-70
2022/05/24 02:33:39;;;;;;;4.30;2.92;;;;;;;18.87;48.28;94432.16;5049460;28;20235;-68
2022/05/24 02:36:06;;;;;;;5.63;3.45;;;;;;;18.90;48.30;94437.03;5052125;28;20227;-69
2022/05/24 02:38:33;;;;;;;6.68;3.83;;;;;;;18.84;48.49;94437.88;5086650;28;20235;-66
2022/05/24 02:43:43;;;;;;;4.95;3.28;;;;;;;18.81;48.77;94469.47;5091443;28;20760;-63
2022/05/24 02:46:10;;;;;;;3.95;3.42;;;;;;;18.47;49.80;94475.00;5077711;28;20307;-66
2022/05/24 02:48:37;;;;;;;3.28;2.97;;;;;;;18.67;49.39;94479.38;5090206;28;20343;-63
2022/05/24 02:51:09;;;;;;;4.60;3.00;;;;;;;18.67;49.18;94474.03;5071531;28;20298;-70
2022/05/24 02:53:35;;;;;;;7.15;3.88;;;;;;;18.68;49.27;94470.34;5069740;28;20208;-66
2022/05/24 02:56:03;;;;;;;5.50;3.25;;;;;;;18.73;49.35;94470.50;5091227;28;20196;-66
2022/05/24 02:58:28;;;;;;;4.60;3.38;;;;;;;18.71;49.25;94468.09;5073759;28;20224;-69
2022/05/24 03:00:54;;;;;;;6.32;3.03;;;;;;;18.75;49.05;94478.34;5085036;28;20227;-69
2022/05/24 03:03:19;;;;;;;5.13;3.45;;;;;;;18.75;48.85;94479.16;5066967;28;20226;-67
2022/05/24 03:05:45;;;;;;;4.00;3.33;;;;;;;18.59;49.64;94474.31;5071888;28;20692;-67
2022/05/24 03:10:54;;;;;;;8.48;4.25;;;;;;;18.59;49.63;94487.63;5089106;28;20218;-68
2022/05/24 03:16:12;;;;;;;8.95;3.90;;;;;;;18.63;49.63;94478.16;5077736;28;20223;-61
2022/05/24 03:18:37;;;;;;;8.38;4.35;;;;;;;18.55;49.74;94481.91;5062035;28;20211;-65
2022/05/24 03:21:03;;;;;;;7.05;4.35;;;;;;;18.53;50.03;94475.97;5077346;28;20278;-61
2022/05/24 03:23:29;;;;;;;8.40;4.75;;;;;;;18.50;50.03;94468.44;5060163;28;20207;-67
2022/05/24 03:25:54;;;;;;;7.43;4.93;;;;;;;18.48;50.30;94473.94;5082468;28;20345;-70
2022/05/24 03:28:20;;;;;;;8.80;5.30;;;;;;;18.48;50.23;94471.28;5073013;28;20219;-67
2022/05/24 03:30:46;;;;;;;9.15;5.10;;;;;;;18.36;50.77;94475.66;5091557;28;20228;-64
2022/05/24 03:33:12;;;;;;;11.77;6.03;;;;;;;18.39;50.39;94479.72;5073463;28;20296;-68
2022/05/24 03:35:39;;;;;;;7.57;5.13;;;;;;;18.46;50.23;94483.19;5077164;28;20290;-66
2022/05/24 03:38:05;;;;;;;10.25;5.57;;;;;;;18.45;50.29;94466.41;5065308;28;20227;-64
2022/05/24 03:40:31;;;;;;;7.75;5.80;;;;;;;18.50;50.04;94471.91;5081249;28;20299;-68
2022/05/24 03:42:56;;;;;;;7.47;5.30;;;;;;;18.50;50.02;94477.22;5074033;28;20241;-68
2022/05/24 03:45:22;;;;;;;7.15;5.22;;;;;;;18.66;50.28;94477.75;5073774;28;20712;-66
2022/05/24 03:47:48;;;;;;;7.30;4.82;;;;;;;18.65;50.10;94481.44;5079112;28;20220;-67
2022/05/24 03:50:14;;;;;;;8.23;4.90;;;;;;;18.71;49.93;94486.72;5069709;28;20219;-68
2022/05/24 03:52:40;;;;;;;8.18;4.80;;;;;;;18.73;49.70;94478.50;5068984;28;20217;-68
2022/05/24 03:55:07;;;;;;;7.90;4.55;;;;;;;18.85;49.85;94490.16;5070987;28;20216;-65
2022/05/24 04:00:19;;;;;;;8.63;4.43;;;;;;;18.74;49.77;94496.13;5087755;28;20234;-67
2022/05/24 04:02:45;;;;;;;7.90;4.55;;;;;;;18.72;49.66;94484.88;5070339;28;20219;-65
2022/05/24 04:05:11;;;;;;;11.13;4.53;;;;;;;18.60;49.94;94486.56;5088084;28;20204;-62
2022/05/24 04:07:38;;;;;;;7.10;3.90;;;;;;;18.68;49.84;94495.16;5095741;28;20263;-68
2022/05/24 04:10:05;;;;;;;5.93;3.75;;;;;;;18.59;50.00;94492.94;5081895;28;20781;-62
2022/05/24 04:12:31;;;;;;;8.13;4.07;;;;;;;18.61;49.95;94499.69;5057730;28;20223;-68
2022/05/24 04:14:56;;;;;;;5.47;3.75;;;;;;;18.66;49.85;94507.03;5089706;28;20223;-64
2022/05/24 04:17:21;;;;;;;8.23;4.20;;;;;;;18.67;49.78;94500.69;5075166;28;20212;-62
2022/05/24 04:19:47;;;;;;;6.97;3.60;;;;;;;18.73;49.73;94505.13;5073065;28;20196;-68
2022/05/24 04:22:15;;;;;;;8.60;4.32;;;;;;;18.62;50.08;94505.81;5071055;28;20216;-66
2022/05/24 04:24:41;;;;;;;6.45;4.20;;;;;;;18.54;50.24;94498.09;5067979;28;20815;-64
2022/05/24 04:27:07;;;;;;;9.93;4.65;;;;;;;18.63;50.09;94500.31;5057917;28;20322;-66
2022/05/24 04:29:39;;;;;;;5.95;4.07;;;;;;;18.86;49.45;94494.44;5068207;28;20253;-65
2022/05/24 04:32:04;;;;;;;10.93;4.57;;;;;;;18.90;49.28;94500.16;5077428;28;20192;-62
2022/05/24 04:34:30;;;;;;;4.95;4.00;;;;;;;18.88;49.65;94504.88;5070661;28;20281;-69
2022/05/24 04:36:55;;;;;;;6.72;4.80;;;;;;;18.78;49.58;94491.22;5072477;28;20333;-68
2022/05/24 04:39:21;;;;;;;7.78;4.90;;;;;;;18.85;49.94;94497.31;5059392;28;20637;-67
2022/05/24 04:44:30;;;;;;;7.10;5.35;;;;;;;18.82;49.67;94493.25;5076626;28;20219;-62
2022/05/24 04:47:08;;;;;;;7.57;4.97;;;;;;;18.79;49.81;94480.34;5071158;28;20208;-66
2022/05/24 04:49:38;;;;;;;9.25;5.15;;;;;;;18.95;49.84;94482.50;5058231;28;20212;-66
2022/05/24 04:52:05;;;;;;;7.70;5.18;;;;;;;19.13;49.48;94488.91;5070206;28;20255;-65
2022/05/24 04:54:30;;;;;;;7.28;4.95;;;;;;;19.32;48.63;94498.56;5085391;28;20235;-63
2022/05/24 04:56:55;;;;;;;5.40;4.85;;;;;;;19.39;48.61;94498.53;5069440;28;20310;-67
2022/05/24 04:59:21;;;;;;;6.80;4.63;;;;;;;19.53;48.45;94509.88;5074744;28;20291;-65
2022/05/24 05:01:51;;;;;;;8.35;4.57;;;;;;;19.57;48.26;94511.09;5084871;28;20216;-62
2022/05/24 05:04:17;;;;;;;9.65;5.32;;;;;;;19.51;48.48;94517.28;5078162;28;20268;-69
2022/05/24 05:06:44;;;;;;;8.30;5.07;;;;;;;19.40;48.12;94513.47;5082560;28;20216;-67
2022/05/24 05:09:10;;;;;;;7.22;4.68;;;;;;;19.28;48.80;94525.91;5073529;28;20224;-67
2022/05/24 05:11:35;;;;;;;7.32;4.80;;;;;;;19.39;48.51;94526.00;5083752;28;20251;-67
2022/05/24 05:14:01;;;;;;;7.28;4.78;;;;;;;19.41;48.01;94532.97;5074197;28;20192;-68
2022/05/24 05:16:26;;;;;;;5.10;4.60;;;;;;;19.41;48.38;94535.66;5080676;28;20219;-64
2022/05/24 05:18:52;;;;;;;4.35;3.80;;;;;;;19.36;48.61;94531.78;5091714;28;20224;-68
2022/05/24 05:21:17;;;;;;;7.18;4.18;;;;;;;19.24;48.53;94538.03;5095883;28;20224;-68
2022/05/24 05:23:43;;;;;;;7.70;4.18;;;;;;;19.21;48.55;94546.44;5067554;28;20227;-68
2022/05/24 05:26:08;;;;;;;9.65;4.57;;;;;;;19.07;49.10;94535.06;5074841;28;20212;-67
2022/05/24 05:28:34;;;;;;;7.15;4.10;;;;;;;19.08;49.31;94542.03;5075516;28;20255;-65
2022/05/24 05:31:22;;;;;;;6.78;4.25;;;;;;;18.70;49.76;94548.19;5077297;28;20250;-61
2022/05/24 05:33:49;;;;;;;6.75;4.07;;;;;;;18.64;50.37;94541.88;5074277;28;20233;-64
2022/05/24 05:36:15;;;;;;;6.88;4.22;;;;;;;18.84;49.84;94555.09;5079611;28;20266;-69
2022/05/24 05:38:47;;;;;;;12.90;4.45;;;;;;;19.05;49.39;94547.78;5090650;28;20242;-69
2022/05/24 05:41:15;;;;;;;5.78;3.95;;;;;;;19.21;48.78;94554.44;5069412;28;20263;-65
2022/05/24 05:43:41;;;;;;;8.00;4.50;;;;;;;19.37;48.42;94559.25;5075652;28;20211;-67
2022/05/24 05:46:07;;;;;;;6.93;4.13;;;;;;;19.36;48.34;94544.28;5069413;28;20220;-69
2022/05/24 05:48:34;;;;;;;4.85;4.38;;;;;;;19.43;48.04;94550.38;5076164;28;20227;-68
2022/05/24 05:51:00;;;;;;;7.22;4.35;;;;;;;19.37;48.71;94559.25;5072530;28;20220;-65
2022/05/24 05:53:25;;;;;;;6.65;4.38;;;;;;;19.43;48.29;94560.22;5076820;28;20214;-62
2022/05/24 05:55:51;;;;;;;8.30;5.13;;;;;;;19.56;48.23;94560.09;5079017;28;20202;-62
2022/05/24 05:58:16;;;;;;;8.13;4.78;;;;;;;19.65;48.21;94560.66;5070647;28;20242;-65
2022/05/24 06:00:42;;;;;;;9.05;5.13;;;;;;;19.61;48.48;94565.59;5090777;28;20227;-64
2022/05/24 06:03:08;;;;;;;7.13;5.13;;;;;;;19.64;47.78;94559.03;5073538;28;20225;-68
2022/05/24 06:05:34;;;;;;;6.55;4.57;;;;;;;19.64;47.50;94565.16;5086455;28;20219;-63
2022/05/24 06:08:01;;;;;;;9.65;5.00;;;;;;;19.47;47.89;94572.09;5089628;28;20204;-66
2022/05/24 06:10:28;;;;;;;7.15;5.13;;;;;;;19.61;47.68;94576.28;5056746;28;20223;-67
2022/05/24 06:12:55;;;;;;;9.70;5.28;;;;;;;19.69;47.53;94580.56;5075435;28;20212;-67
2022/05/24 06:15:21;;;;;;;8.15;4.88;;;;;;;19.68;47.76;94577.06;5080588;28;20227;-68
2022/05/24 06:17:49;;;;;;;7.03;4.85;;;;;;;19.64;47.93;94578.50;5073831;28;20215;-66
2022/05/24 06:20:17;;;;;;;5.78;4.40;;;;;;;19.75;47.96;94577.84;5071773;28;20219;-66
2022/05/24 06:22:42;;;;;;;6.60;4.72;;;;;;;19.73;48.37;94581.75;5071589;28;20224;-69
2022/05/24 06:25:08;;;;;;;7.90;4.78;;;;;;;19.92;47.68;94586.09;5074477;28;20332;-64
2022/05/24 06:27:33;;;;;;;8.77;4.75;;;;;;;19.93;47.35;94579.69;5071824;28;20230;-66
2022/05/24 06:29:59;;;;;;;11.35;5.07;;;;;;;19.93;47.36;94581.56;5072167;28;20220;-67
2022/05/24 06:32:25;;;;;;;8.13;5.20;;;;;;;19.99;46.97;94578.84;5078803;28;20204;-62
2022/05/24 06:34:52;;;;;;;7.25;4.78;;;;;;;20.00;46.84;94566.31;5073869;28;20196;-69
2022/05/24 06:37:19;;;;;;;8.25;4.97;;;;;;;20.11;46.53;94559.41;5074662;28;20233;-69
2022/05/24 06:39:46;;;;;;;6.18;4.28;;;;;;;20.08;46.98;94560.69;5069174;28;20252;-68
2022/05/24 06:42:11;;;;;;;6.53;4.63;;;;;;;20.07;46.40;94550.22;5057339;28;20300;-66
2022/05/24 06:44:39;;;;;;;8.40;4.90;;;;;;;20.02;47.15;94554.38;5067385;28;20308;-65
2022/05/24 06:47:07;;;;;;;7.07;4.95;;;;;;;20.06;46.55;94544.06;5075107;28;20571;-68
2022/05/24 06:49:32;;;;;;;7.85;5.25;;;;;;;20.13;46.03;94547.50;5082026;28;20228;-69
2022/05/24 06:51:58;;;;;;;6.60;5.00;;;;;;;20.11;46.67;94540.75;5073117;28;20259;-62
2022/05/24 06:54:24;;;;;;;6.85;5.05;;;;;;;20.11;46.74;94546.06;5073526;28;20252;-62
2022/05/24 06:56:50;;;;;;;8.40;5.20;;;;;;;20.21;45.94;94539.19;5070471;28;20265;-69
2022/05/24 07:04:43;;;;;;;7.82;5.45;;;;;;;20.27;46.14;94537.47;5089027;28;20276;-67
2022/05/24 07:07:09;;;;;;;6.22;5.13;;;;;;;20.39;46.06;94540.19;5063690;28;20221;-65
2022/05/24 07:09:40;;;;;;;7.85;5.90;;;;;;;20.51;45.68;94530.41;5080596;28;20242;-65
2022/05/24 07:12:06;;;;;;;8.38;5.25;;;;;;;20.53;45.95;94535.50;5077511;28;20241;-68
2022/05/24 07:14:34;;;;;;;10.70;6.03;;;;;;;20.63;46.20;94530.47;5075904;28;20248;-68
2022/05/24 07:16:59;;;;;;;7.68;5.55;;;;;;;20.66;46.58;94541.53;5095021;28;20204;-68
2022/05/24 07:19:25;;;;;;;8.55;5.60;;;;;;;20.72;45.85;94552.38;5071786;28;20276;-65
2022/05/24 07:21:51;;;;;;;6.05;5.45;;;;;;;20.89;45.19;94548.00;5071416;28;20527;-62
2022/05/24 07:24:17;;;;;;;8.93;5.40;;;;;;;20.96;44.87;94551.41;5068718;28;20562;-68
2022/05/24 07:26:46;;;;;;;7.40;5.22;;;;;;;20.99;44.76;94550.94;5082751;28;20220;-67
2022/05/24 07:29:12;;;;;;;7.65;5.68;;;;;;;20.82;45.16;94561.47;5073274;28;20215;-62
2022/05/24 07:31:41;;;;;;;8.45;5.60;;;;;;;20.72;44.58;94553.19;5089428;28;20400;-67
2022/05/24 07:34:07;;;;;;;8.10;5.78;;;;;;;20.93;44.11;94555.34;5067731;28;20292;-66
2022/05/24 07:36:32;;;;;;;7.18;5.03;;;;;;;21.11;43.95;94549.09;5071192;28;20265;-68
2022/05/24 07:38:58;;;;;;;8.48;5.30;;;;;;;21.22;44.08;94544.84;5066658;28;20368;-69
2022/05/24 07:46:53;;;;;;;6.65;6.00;;;;;;;21.87;42.24;94541.34;5095524;28;20292;-67
2022/05/24 07:49:22;;;;;;;6.97;6.25;;;;;;;21.86;42.17;94538.88;5069161;28;20223;-69
2022/05/24 07:51:47;;;;;;;7.05;5.90;;;;;;;21.84;43.03;94539.13;5085849;28;20283;-66
2022/05/24 07:54:13;;;;;;;9.93;5.43;;;;;;;22.04;43.25;94544.09;5072915;28;20318;-67
2022/05/24 07:56:38;;;;;;;8.65;4.95;;;;;;;22.23;42.75;94542.13;5069487;28;20232;-66
2022/05/24 07:59:04;;;;;;;7.22;4.68;;;;;;;22.40;42.60;94545.72;5071516;28;20266;-69
2022/05/24 08:01:29;;;;;;;7.53;4.90;;;;;;;22.49;42.11;94542.66;5070421;28;20226;-69
2022/05/24 08:03:54;;;;;;;8.10;5.03;;;;;;;22.27;42.39;94534.47;5071092;28;20228;-65
2022/05/24 08:06:20;;;;;;;6.50;5.00;;;;;;;22.19;42.62;94519.56;5069737;28;20228;-64
2022/05/24 08:08:48;;;;;;;7.72;4.82;;;;;;;21.99;43.25;94525.25;5068365;28;20222;-68
2022/05/24 08:11:14;;;;;;;11.32;4.85;;;;;;;22.09;43.42;94538.88;5080084;28;20303;-67
2022/05/24 08:13:39;;;;;;;8.13;5.60;;;;;;;22.08;42.89;94536.41;5066404;28;20306;-67
2022/05/24 08:16:05;;;;;;;7.93;5.20;;;;;;;22.07;42.83;94538.28;5072554;28;20244;-63
2022/05/24 08:18:31;;;;;;;7.60;5.20;;;;;;;22.11;42.80;94552.03;5072782;28;20255;-65
2022/05/24 08:20:58;;;;;;;7.40;5.35;;;;;;;22.21;42.63;94547.75;5076346;28;20225;-62
2022/05/24 08:23:25;;;;;;;9.60;5.28;;;;;;;22.22;42.54;94535.97;5071096;28;20238;-66
2022/05/24 08:25:50;;;;;;;8.23;4.53;;;;;;;21.78;44.44;94530.19;5093606;28;20204;-65
2022/05/24 08:28:16;;;;;;;11.05;4.63;;;;;;;22.14;43.67;94541.66;5073844;28;20224;-62
2022/05/24 08:30:43;;;;;;;8.80;4.53;;;;;;;22.43;43.16;94539.88;5067787;28;20227;-67
2022/05/24 08:33:12;;;;;;;7.40;5.30;;;;;;;22.62;43.44;94535.16;5071364;28;20224;-62
2022/05/24 08:35:38;;;;;;;7.60;4.82;;;;;;;22.62;42.67;94527.13;5077423;28;20371;-63
2022/05/24 08:38:05;;;;;;;7.72;5.00;;;;;;;22.60;42.90;94523.88;5072617;28;20318;-69
2022/05/24 08:40:35;;;;;;;5.82;4.88;;;;;;;22.86;42.02;94529.72;5088965;28;20223;-62
2022/05/24 08:43:26;;;;;;;7.35;5.22;;;;;;;22.78;42.15;94535.47;5075762;28;20239;-69
2022/05/24 08:48:59;;;;;;;7.38;5.60;;;;;;;22.81;41.87;94538.47;5090194;28;20282;-69
2022/05/24 08:51:29;;;;;;;8.75;5.25;;;;;;;22.65;42.37;94539.25;5070378;28;20285;-63
2022/05/24 08:54:00;;;;;;;8.27;5.40;;;;;;;22.78;42.69;94536.28;5080531;28;20228;-67
2022/05/24 08:56:32;;;;;;;7.50;5.38;;;;;;;22.77;42.69;94534.63;5093576;28;20200;-62
2022/05/24 08:59:33;;;;;;;8.10;5.03;;;;;;;22.88;42.91;94535.63;5077760;28;20251;-68
2022/05/24 09:01:59;;;;;;;5.30;4.60;;;;;;;22.93;42.75;94534.91;5075076;28;20231;-62
2022/05/24 09:04:25;;;;;;;8.27;4.47;;;;;;;23.07;42.54;94541.66;5072413;28;20302;-67
2022/05/24 09:07:09;;;;;;;8.73;4.72;;;;;;;23.05;42.05;94541.09;5071569;28;20311;-66
2022/05/24 09:09:39;;;;;;;8.23;5.13;;;;;;;23.00;42.13;94535.63;5076666;28;20216;-70
2022/05/24 09:12:42;;;;;;;6.25;5.43;;;;;;;23.01;42.62;94539.94;5097101;28;20239;-71
2022/05/24 09:15:23;;;;;;;7.90;4.90;;;;;;;22.85;42.32;94530.75;5066809;28;20251;-69
2022/05/24 09:18:15;;;;;;;7.78;5.30;;;;;;;22.99;42.61;94525.94;5070365;28;20224;-69
2022/05/24 09:20:44;;;;;;;6.63;5.07;;;;;;;23.10;42.85;94512.50;5071802;28;20242;-67
2022/05/24 09:23:32;;;;;;;7.65;5.18;;;;;;;23.30;42.01;94522.72;5080080;28;20284;-69
2022/05/24 09:26:06;;;;;;;7.18;5.32;;;;;;;23.41;41.46;94520.22;5079190;28;20285;-66
2022/05/24 09:28:42;;;;;;;8.15;5.38;;;;;;;23.41;42.04;94518.34;5071143;28;20224;-66
2022/05/24 09:31:30;;;;;;;8.05;4.75;;;;;;;23.73;42.23;94515.91;5076465;28;20212;-68
2022/05/24 09:34:04;;;;;;;6.60;5.05;;;;;;;23.78;41.39;94504.44;5068714;28;20251;-67
2022/05/24 09:36:41;;;;;;;7.20;5.15;;;;;;;23.99;41.05;94498.31;5072865;28;20224;-66
2022/05/24 09:39:35;;;;;;;5.90;5.22;;;;;;;24.17;41.31;94515.22;5070604;28;20228;-68
2022/05/24 09:42:04;;;;;;;7.75;5.47;;;;;;;24.32;40.56;94514.56;5059582;28;20231;-64
2022/05/24 09:45:11;;;;;;;8.32;5.10;;;;;;;24.59;40.37;94518.19;5086370;28;20199;-66
2022/05/24 09:47:58;;;;;;;8.55;5.32;;;;;;;24.59;40.05;94515.50;5014483;28;20229;-64
2022/05/24 09:50:29;;;;;;;9.23;5.13;;;;;;;24.80;39.94;94513.00;4978555;28;20361;-62
2022/05/24 09:53:22;;;;;;;9.15;5.82;;;;;;;25.04;39.26;94506.25;4988132;28;20230;-63
2022/05/24 09:55:52;;;;;;;7.78;5.80;;;;;;;25.34;37.92;94502.28;4996077;28;20228;-62
2022/05/24 09:58:58;;;;;;;9.10;5.22;;;;;;;25.41;38.02;94504.75;4994470;28;20227;-66
2022/05/24 10:01:31;;;;;;;11.90;5.88;;;;;;;25.16;38.64;94510.72;4955960;28;20233;-66
2022/05/24 10:04:14;;;;;;;6.88;5.00;;;;;;;25.28;37.85;94498.72;4973133;28;20276;-67
2022/05/24 10:06:41;;;;;;;5.32;4.82;;;;;;;25.58;37.67;94507.28;4977425;28;20300;-69
2022/05/24 10:09:18;;;;;;;8.35;5.30;;;;;;;25.53;37.84;94500.00;4974359;28;20243;-62
2022/05/24 10:11:56;;;;;;;12.55;6.03;;;;;;;25.58;38.06;94500.06;4956834;28;20227;-66
2022/05/24 10:14:34;;;;;;;10.80;6.22;;;;;;;25.73;37.26;94496.63;4970735;28;20279;-66
2022/05/24 10:17:27;;;;;;;6.75;5.72;;;;;;;25.48;37.72;94497.28;4952271;28;20251;-63
2022/05/24 10:20:22;;;;;;;7.00;5.38;;;;;;;25.59;37.98;94495.47;4956486;28;20278;-69
2022/05/24 10:23:02;;;;;;;10.98;6.15;;;;;;;25.97;37.54;94489.00;4963543;28;20258;-62
2022/05/24 10:25:39;;;;;;;11.70;5.80;;;;;;;26.16;37.72;94503.66;5029145;28;20229;-68
2022/05/24 10:28:13;;;;;;;7.90;5.50;;;;;;;26.36;36.68;94499.47;5019812;28;20225;-62
2022/05/24 10:31:03;;;;;;;8.25;5.28;;;;;;;26.56;36.34;94491.47;5036406;28;20301;-69
2022/05/24 10:39:43;;;;;;;6.20;5.15;;;;;;;26.96;35.79;94492.66;5073466;27;20602;-70
2022/05/24 10:42:36;;;;;;;6.75;6.07;;;;;;;27.10;35.26;94486.72;5014610;28;20634;-68
2022/05/24 10:45:05;;;;;;;7.05;5.40;;;;;;;27.14;35.40;94475.16;5012573;28;20237;-69
2022/05/24 10:47:40;;;;;;;9.07;5.57;;;;;;;27.31;34.45;94476.81;5009303;28;20267;-68
2022/05/24 10:50:29;;;;;;;11.50;6.13;;;;;;;27.20;35.03;94459.78;5011182;28;20210;-70
2022/05/24 10:53:15;;;;;;;9.75;5.63;;;;;;;27.38;34.62;94463.84;5012393;28;20343;-69
2022/05/24 10:55:46;;;;;;;8.00;5.85;;;;;;;27.00;35.17;94471.38;5021542;28;20222;-66
2022/05/24 10:58:15;;;;;;;8.90;5.90;;;;;;;27.26;35.43;94472.19;5020608;28;20214;-69
2022/05/24 11:00:47;;;;;;;7.07;5.70;;;;;;;27.59;34.56;94470.88;5015649;28;20246;-68
2022/05/24 11:03:15;;;;;;;6.05;5.43;;;;;;;27.75;33.66;94476.22;5019828;28;20222;-63
2022/05/24 11:05:52;;;;;;;8.10;5.75;;;;;;;27.46;34.44;94476.81;5009583;28;20227;-66
2022/05/24 11:08:37;;;;;;;10.00;6.07;;;;;;;27.49;34.48;94465.47;5015216;28;20896;-65
2022/05/24 11:11:41;;;;;;;7.90;5.38;;;;;;;27.84;33.52;94461.94;5016185;28;20317;-71
2022/05/24 11:14:28;;;;;;;10.57;5.60;;;;;;;27.82;33.79;94460.59;5003416;28;20230;-70
2022/05/24 11:16:55;;;;;;;8.65;5.80;;;;;;;27.98;33.64;94448.66;5002620;28;20218;-70
2022/05/24 11:19:24;;;;;;;8.80;5.45;;;;;;;28.21;33.49;94449.13;4968119;28;20265;-70
2022/05/24 11:22:08;;;;;;;8.98;6.18;;;;;;;28.22;33.12;94438.03;4983272;28;20234;-69
2022/05/24 11:24:44;;;;;;;8.68;5.45;;;;;;;28.24;33.45;94432.38;5000099;28;20222;-67
2022/05/24 11:27:14;;;;;;;7.13;5.53;;;;;;;28.57;32.46;94425.47;4983756;28;20233;-69
2022/05/24 11:29:45;;;;;;;6.78;5.68;;;;;;;28.78;31.83;94434.28;4983448;28;20249;-66
2022/05/24 11:32:11;;;;;;;8.82;5.93;;;;;;;28.95;31.51;94429.31;5004517;28;21063;-70
2022/05/24 11:34:54;;;;;;;6.88;5.38;;;;;;;28.92;31.79;94420.91;5002597;28;20219;-66
2022/05/24 11:37:27;;;;;;;6.70;6.05;;;;;;;29.05;31.73;94411.41;5001348;28;20620;-62
2022/05/24 11:39:54;;;;;;;8.50;5.70;;;;;;;29.07;32.41;94418.13;4984250;28;20227;-68
2022/05/24 11:42:25;;;;;;;9.13;5.95;;;;;;;29.40;31.59;94415.69;4983538;28;20215;-69
2022/05/24 11:44:53;;;;;;;6.38;5.75;;;;;;;29.75;30.59;94417.31;4984326;28;20226;-69
2022/05/24 11:47:33;;;;;;;8.82;5.60;;;;;;;29.85;30.31;94411.75;5002526;28;20203;-67
2022/05/24 11:50:03;;;;;;;9.73;5.50;;;;;;;30.02;29.76;94396.94;4978403;28;20261;-66
2022/05/24 11:52:45;;;;;;;8.77;5.90;;;;;;;29.94;29.82;94387.56;5003707;28;20234;-66
2022/05/24 11:55:40;;;;;;;9.60;5.95;;;;;;;29.98;30.06;94387.78;5012469;28;20262;-70
2022/05/24 11:58:20;;;;;;;9.27;6.45;;;;;;;29.87;29.98;94387.91;4994803;28;20731;-66
2022/05/24 12:01:28;;;;;;;7.15;5.95;;;;;;;29.18;31.16;94376.34;4998436;28;20675;-68
2022/05/24 12:10:04;;;;;;;8.95;6.10;;;;;;;30.47;29.76;94362.22;4995811;28;20234;-70
2022/05/24 12:12:36;;;;;;;7.13;5.72;;;;;;;30.95;28.92;94362.09;5002245;28;20615;-64
2022/05/24 12:15:16;;;;;;;11.73;6.15;;;;;;;31.06;28.43;94358.13;4996264;28;20242;-67
2022/05/24 12:17:43;;;;;;;7.55;5.85;;;;;;;31.09;28.28;94360.25;4997575;28;20238;-63
2022/05/24 12:20:35;;;;;;;7.20;5.43;;;;;;;31.06;28.45;94355.41;5000683;28;20616;-67
2022/05/24 12:23:06;;;;;;;9.98;6.32;;;;;;;31.17;28.07;94350.63;4959513;28;20231;-62
2022/05/24 12:25:53;;;;;;;8.70;5.90;;;;;;;31.05;28.27;94358.41;4977417;28;20375;-63
2022/05/24 12:28:40;;;;;;;7.68;5.90;;;;;;;30.63;28.88;94355.47;4981049;28;20234;-64
2022/05/24 12:31:17;;;;;;;10.43;6.07;;;;;;;31.01;28.47;94351.97;4968407;28;20227;-68
2022/05/24 12:33:49;;;;;;;8.38;6.40;;;;;;;30.99;28.64;94349.56;4972319;28;20227;-69